sensor_id;sensor_type;location;lat;lon;timestamp;pressure;altitude;pressure_sealevel;temperature;humidity
69247;BME280;56358;56.328;43.992;2022-12-07T00:00:42;102525.00;;;-9.22;63.32
69247;BME280;56358;56.328;43.992;2022-12-07T00:02:43;102446.53;;;-9.62;63.62
69247;BME280;56358;56.328;43.992;2022-12-07T00:04:43;102537.47;;;-9.13;63.88
69247;BME280;56358;56.328;43.992;2022-12-07T00:06:46;102530.53;;;-9.13;64.16
69247;BME280;56358;56.328;43.992;2022-12-07T00:08:47;102487.16;;;-9.39;63.90
69247;BME280;56358;56.328;43.992;2022-12-07T00:10:48;102527.84;;;-9.16;64.04
69247;BME280;56358;56.328;43.992;2022-12-07T00:12:49;102522.50;;;-9.19;64.06
69247;BME280;56358;56.328;43.992;2022-12-07T00:14:50;102534.63;;;-9.19;63.84
69247;BME280;56358;56.328;43.992;2022-12-07T00:16:51;102457.03;;;-9.58;64.13
69247;BME280;56358;56.328;43.992;2022-12-07T00:18:52;102530.00;;;-9.28;64.21
69247;BME280;56358;56.328;43.992;2022-12-07T00:20:53;102522.31;;;-9.25;63.96
69247;BME280;56358;56.328;43.992;2022-12-07T00:22:59;102517.00;;;-9.28;64.14
69247;BME280;56358;56.328;43.992;2022-12-07T00:25:00;102427.50;;;-9.85;64.04
69247;BME280;56358;56.328;43.992;2022-12-07T00:27:00;102536.84;;;-9.30;64.52
69247;BME280;56358;56.328;43.992;2022-12-07T00:29:20;102506.16;;;-9.40;64.29
69247;BME280;56358;56.328;43.992;2022-12-07T00:31:24;102520.38;;;-9.31;64.39
69247;BME280;56358;56.328;43.992;2022-12-07T00:33:25;102521.16;;;-9.33;64.35
69247;BME280;56358;56.328;43.992;2022-12-07T00:35:28;102514.84;;;-9.40;64.59
69247;BME280;56358;56.328;43.992;2022-12-07T00:37:29;102493.53;;;-9.54;64.46
69247;BME280;56358;56.328;43.992;2022-12-07T00:39:30;102511.28;;;-9.42;64.82
69247;BME280;56358;56.328;43.992;2022-12-07T00:41:30;102449.97;;;-9.85;64.78
69247;BME280;56358;56.328;43.992;2022-12-07T00:43:31;102532.63;;;-9.51;64.90
69247;BME280;56358;56.328;43.992;2022-12-07T00:45:32;102505.00;;;-9.49;64.97
69247;BME280;56358;56.328;43.992;2022-12-07T00:47:33;102515.31;;;-9.50;64.97
69247;BME280;56358;56.328;43.992;2022-12-07T00:49:33;102426.94;;;-10.00;65.22
69247;BME280;56358;56.328;43.992;2022-12-07T00:51:34;102505.31;;;-9.64;65.23
69247;BME280;56358;56.328;43.992;2022-12-07T00:53:35;102522.25;;;-9.51;65.20
69247;BME280;56358;56.328;43.992;2022-12-07T00:55:36;102523.94;;;-9.51;65.24
69247;BME280;56358;56.328;43.992;2022-12-07T00:57:37;102522.25;;;-9.51;65.12
69247;BME280;56358;56.328;43.992;2022-12-07T00:59:38;102529.25;;;-9.48;64.95
69247;BME280;56358;56.328;43.992;2022-12-07T01:01:38;102508.97;;;-9.58;64.96
69247;BME280;56358;56.328;43.992;2022-12-07T01:03:39;102521.34;;;-9.51;64.99
69247;BME280;56358;56.328;43.992;2022-12-07T01:05:40;102440.19;;;-9.93;65.17
69247;BME280;56358;56.328;43.992;2022-12-07T01:07:40;102512.63;;;-9.53;64.82
69247;BME280;56358;56.328;43.992;2022-12-07T01:09:41;102529.94;;;-9.52;65.17
69247;BME280;56358;56.328;43.992;2022-12-07T01:11:41;102486.06;;;-9.69;65.13
69247;BME280;56358;56.328;43.992;2022-12-07T01:13:43;102511.84;;;-9.51;65.08
69247;BME280;56358;56.328;43.992;2022-12-07T01:15:44;102508.41;;;-9.50;65.20
69247;BME280;56358;56.328;43.992;2022-12-07T01:17:45;102525.75;;;-9.49;65.33
69247;BME280;56358;56.328;43.992;2022-12-07T01:19:45;102515.38;;;-9.49;65.22
69247;BME280;56358;56.328;43.992;2022-12-07T01:21:46;102520.50;;;-9.50;64.92
69247;BME280;56358;56.328;43.992;2022-12-07T01:23:47;102522.97;;;-9.55;64.64
69247;BME280;56358;56.328;43.992;2022-12-07T01:25:57;102515.03;;;-9.58;64.89
69247;BME280;56358;56.328;43.992;2022-12-07T01:27:58;102507.03;;;-9.87;65.35
69247;BME280;56358;56.328;43.992;2022-12-07T01:29:59;102493.56;;;-9.77;64.86
69247;BME280;56358;56.328;43.992;2022-12-07T01:31:59;102510.25;;;-9.70;64.85
69247;BME280;56358;56.328;43.992;2022-12-07T01:34:00;102514.72;;;-9.66;65.03
69247;BME280;56358;56.328;43.992;2022-12-07T01:38:06;102520.88;;;-9.64;64.82
69247;BME280;56358;56.328;43.992;2022-12-07T01:40:07;102527.72;;;-9.66;64.79
69247;BME280;56358;56.328;43.992;2022-12-07T01:42:12;102514.69;;;-9.67;64.70
69247;BME280;56358;56.328;43.992;2022-12-07T01:44:20;102515.59;;;-9.67;64.71
69247;BME280;56358;56.328;43.992;2022-12-07T01:46:21;102513.03;;;-9.65;64.71
69247;BME280;56358;56.328;43.992;2022-12-07T01:48:35;102514.88;;;-9.63;64.61
69247;BME280;56358;56.328;43.992;2022-12-07T01:50:39;102507.84;;;-9.65;64.56
69247;BME280;56358;56.328;43.992;2022-12-07T01:52:41;102518.22;;;-9.65;65.02
69247;BME280;56358;56.328;43.992;2022-12-07T01:54:44;102518.28;;;-9.64;64.31
69247;BME280;56358;56.328;43.992;2022-12-07T01:56:51;102484.84;;;-9.79;64.26
69247;BME280;56358;56.328;43.992;2022-12-07T01:58:55;102528.41;;;-9.70;64.40
69247;BME280;56358;56.328;43.992;2022-12-07T02:00:57;102499.50;;;-9.79;64.50
69247;BME280;56358;56.328;43.992;2022-12-07T02:03:05;102522.31;;;-9.72;64.54
69247;BME280;56358;56.328;43.992;2022-12-07T02:05:07;102506.72;;;-9.72;64.62
69247;BME280;56358;56.328;43.992;2022-12-07T02:07:08;102508.38;;;-9.74;64.46
69247;BME280;56358;56.328;43.992;2022-12-07T02:09:09;102505.81;;;-9.72;64.58
69247;BME280;56358;56.328;43.992;2022-12-07T02:11:10;102516.03;;;-9.77;65.04
69247;BME280;56358;56.328;43.992;2022-12-07T02:13:17;102489.69;;;-9.88;64.63
69247;BME280;56358;56.328;43.992;2022-12-07T02:15:22;102401.00;;;-10.46;64.12
69247;BME280;56358;56.328;43.992;2022-12-07T02:17:42;102490.44;;;-9.90;64.13
69247;BME280;56358;56.328;43.992;2022-12-07T02:24:54;102504.03;;;-9.98;63.52
69247;BME280;56358;56.328;43.992;2022-12-07T02:29:25;102539.31;;;-9.80;64.00
69247;BME280;56358;56.328;43.992;2022-12-07T02:31:29;102517.97;;;-9.94;64.31
69247;BME280;56358;56.328;43.992;2022-12-07T02:33:36;102498.75;;;-9.99;64.26
69247;BME280;56358;56.328;43.992;2022-12-07T02:35:43;102504.38;;;-9.88;64.24
69247;BME280;56358;56.328;43.992;2022-12-07T02:38:23;102520.28;;;-9.79;63.63
69247;BME280;56358;56.328;43.992;2022-12-07T02:40:40;102417.13;;;-10.30;63.58
69247;BME280;56358;56.328;43.992;2022-12-07T02:42:47;102530.59;;;-9.81;63.89
69247;BME280;56358;56.328;43.992;2022-12-07T02:44:50;102520.28;;;-9.79;63.91
69247;BME280;56358;56.328;43.992;2022-12-07T02:47:01;102522.09;;;-9.77;63.77
69247;BME280;56358;56.328;43.992;2022-12-07T02:49:04;102518.66;;;-9.77;63.49
69247;BME280;56358;56.328;43.992;2022-12-07T02:51:07;102455.88;;;-10.12;63.57
69247;BME280;56358;56.328;43.992;2022-12-07T02:53:28;102509.78;;;-9.82;63.81
69247;BME280;56358;56.328;43.992;2022-12-07T02:55:36;102443.22;;;-10.27;63.56
69247;BME280;56358;56.328;43.992;2022-12-07T03:00:19;102529.84;;;-9.78;63.98
69247;BME280;56358;56.328;43.992;2022-12-07T03:02:38;102535.75;;;-9.82;63.97
69247;BME280;56358;56.328;43.992;2022-12-07T03:07:01;102510.94;;;-9.97;64.36
69247;BME280;56358;56.328;43.992;2022-12-07T03:09:20;102458.75;;;-10.27;64.46
69247;BME280;56358;56.328;43.992;2022-12-07T03:11:56;102538.13;;;-9.88;64.44
69247;BME280;56358;56.328;43.992;2022-12-07T03:14:06;102527.47;;;-9.95;64.34
69247;BME280;56358;56.328;43.992;2022-12-07T03:16:19;102470.66;;;-10.32;64.70
69247;BME280;56358;56.328;43.992;2022-12-07T03:18:22;102537.22;;;-9.89;64.63
69247;BME280;56358;56.328;43.992;2022-12-07T03:20:25;102544.94;;;-9.90;64.64
69247;BME280;56358;56.328;43.992;2022-12-07T03:22:29;102520.97;;;-10.06;64.67
69247;BME280;56358;56.328;43.992;2022-12-07T03:24:36;102527.22;;;-10.01;65.15
69247;BME280;56358;56.328;43.992;2022-12-07T03:26:44;102540.50;;;-9.93;65.17
69247;BME280;56358;56.328;43.992;2022-12-07T03:28:50;102530.94;;;-9.94;65.25
69247;BME280;56358;56.328;43.992;2022-12-07T03:30:57;102534.44;;;-9.94;65.24
69247;BME280;56358;56.328;43.992;2022-12-07T03:33:17;102544.88;;;-9.92;65.08
69247;BME280;56358;56.328;43.992;2022-12-07T03:35:29;102540.47;;;-9.95;65.31
69247;BME280;56358;56.328;43.992;2022-12-07T03:39:39;102455.59;;;-10.42;65.09
69247;BME280;56358;56.328;43.992;2022-12-07T03:41:42;102483.47;;;-10.37;65.22
69247;BME280;56358;56.328;43.992;2022-12-07T03:43:43;102548.03;;;-9.99;65.24
69247;BME280;56358;56.328;43.992;2022-12-07T03:48:18;102537.56;;;-10.02;65.18
69247;BME280;56358;56.328;43.992;2022-12-07T03:52:32;102548.03;;;-9.99;65.74
69247;BME280;56358;56.328;43.992;2022-12-07T03:54:49;102554.25;;;-9.96;65.93
69247;BME280;56358;56.328;43.992;2022-12-07T03:56:54;102525.94;;;-10.12;65.71
69247;BME280;56358;56.328;43.992;2022-12-07T03:58:54;102553.25;;;-9.99;65.92
69247;BME280;56358;56.328;43.992;2022-12-07T04:00:55;102569.50;;;-10.03;65.71
69247;BME280;56358;56.328;43.992;2022-12-07T04:02:56;102465.47;;;-10.55;65.82
69247;BME280;56358;56.328;43.992;2022-12-07T04:04:57;102555.59;;;-10.05;65.87
69247;BME280;56358;56.328;43.992;2022-12-07T04:06:57;102538.66;;;-10.18;65.87
69247;BME280;56358;56.328;43.992;2022-12-07T04:08:58;102564.78;;;-10.14;66.25
69247;BME280;56358;56.328;43.992;2022-12-07T04:10:58;102562.13;;;-10.15;66.39
69247;BME280;56358;56.328;43.992;2022-12-07T04:12:59;102563.81;;;-10.16;66.44
69247;BME280;56358;56.328;43.992;2022-12-07T04:15:00;102550.38;;;-10.28;66.64
69247;BME280;56358;56.328;43.992;2022-12-07T04:17:00;102562.97;;;-10.16;66.47
69247;BME280;56358;56.328;43.992;2022-12-07T04:19:01;102561.28;;;-10.14;66.56
69247;BME280;56358;56.328;43.992;2022-12-07T04:21:02;102558.53;;;-10.19;66.67
69247;BME280;56358;56.328;43.992;2022-12-07T04:23:02;102568.91;;;-10.19;66.57
69247;BME280;56358;56.328;43.992;2022-12-07T04:25:04;102568.16;;;-10.16;66.79
69247;BME280;56358;56.328;43.992;2022-12-07T04:27:05;102556.00;;;-10.17;67.09
69247;BME280;56358;56.328;43.992;2022-12-07T04:29:05;102565.56;;;-10.16;67.20
69247;BME280;56358;56.328;43.992;2022-12-07T04:31:06;102544.31;;;-10.29;67.11
69247;BME280;56358;56.328;43.992;2022-12-07T04:33:07;102529.16;;;-10.40;67.08
69247;BME280;56358;56.328;43.992;2022-12-07T04:35:09;102588.69;;;-10.21;67.23
69247;BME280;56358;56.328;43.992;2022-12-07T04:37:09;102570.34;;;-10.25;67.60
69247;BME280;56358;56.328;43.992;2022-12-07T04:39:31;102557.44;;;-10.24;67.35
69247;BME280;56358;56.328;43.992;2022-12-07T04:41:32;102568.69;;;-10.23;67.25
69247;BME280;56358;56.328;43.992;2022-12-07T04:43:33;102573.97;;;-10.22;67.41
69247;BME280;56358;56.328;43.992;2022-12-07T04:45:34;102568.00;;;-10.19;67.59
69247;BME280;56358;56.328;43.992;2022-12-07T04:47:35;102424.75;;;-11.00;67.29
69247;BME280;56358;56.328;43.992;2022-12-07T04:49:36;102546.09;;;-10.26;67.27
69247;BME280;56358;56.328;43.992;2022-12-07T04:51:36;102574.25;;;-10.14;67.38
69247;BME280;56358;56.328;43.992;2022-12-07T04:53:37;102562.97;;;-10.16;68.76
69247;BME280;56358;56.328;43.992;2022-12-07T04:55:37;102562.38;;;-10.09;68.88
69247;BME280;56358;56.328;43.992;2022-12-07T04:57:38;102573.66;;;-10.08;68.98
69247;BME280;56358;56.328;43.992;2022-12-07T04:59:39;102581.59;;;-10.04;68.62
69247;BME280;56358;56.328;43.992;2022-12-07T05:01:40;102543.78;;;-10.20;68.68
69247;BME280;56358;56.328;43.992;2022-12-07T05:03:40;102568.75;;;-10.01;68.90
69247;BME280;56358;56.328;43.992;2022-12-07T05:05:41;102570.53;;;-10.00;69.01
69247;BME280;56358;56.328;43.992;2022-12-07T05:07:42;102575.84;;;-9.97;68.69
69247;BME280;56358;56.328;43.992;2022-12-07T05:09:42;102588.00;;;-9.96;68.60
69247;BME280;56358;56.328;43.992;2022-12-07T05:11:43;102577.59;;;-9.96;68.70
69247;BME280;56358;56.328;43.992;2022-12-07T05:13:44;102575.22;;;-9.91;68.81
69247;BME280;56358;56.328;43.992;2022-12-07T05:15:46;102583.06;;;-9.89;69.21
69247;BME280;56358;56.328;43.992;2022-12-07T05:17:46;102578.09;;;-9.83;69.09
69247;BME280;56358;56.328;43.992;2022-12-07T05:19:47;102564.75;;;-9.93;68.77
69247;BME280;56358;56.328;43.992;2022-12-07T05:21:48;102550.72;;;-9.98;68.77
69247;BME280;56358;56.328;43.992;2022-12-07T05:23:48;102574.63;;;-9.84;68.72
69247;BME280;56358;56.328;43.992;2022-12-07T05:25:49;102576.41;;;-9.83;69.08
69247;BME280;56358;56.328;43.992;2022-12-07T05:27:50;102567.78;;;-9.82;68.95
69247;BME280;56358;56.328;43.992;2022-12-07T05:29:51;102568.97;;;-9.73;68.76
69247;BME280;56358;56.328;43.992;2022-12-07T05:31:51;102573.09;;;-9.79;69.02
69247;BME280;56358;56.328;43.992;2022-12-07T05:33:52;102571.38;;;-9.78;68.94
69247;BME280;56358;56.328;43.992;2022-12-07T05:35:53;102568.03;;;-9.75;69.06
69247;BME280;56358;56.328;43.992;2022-12-07T05:37:54;102467.91;;;-10.37;69.03
69247;BME280;56358;56.328;43.992;2022-12-07T05:39:54;102561.66;;;-9.84;68.91
69247;BME280;56358;56.328;43.992;2022-12-07T05:41:55;102569.75;;;-9.76;69.04
69247;BME280;56358;56.328;43.992;2022-12-07T05:44:14;102423.66;;;-10.63;69.07
69247;BME280;56358;56.328;43.992;2022-12-07T05:46:15;102572.34;;;-9.76;69.27
69247;BME280;56358;56.328;43.992;2022-12-07T05:48:16;102567.00;;;-9.79;69.38
69247;BME280;56358;56.328;43.992;2022-12-07T05:50:16;102565.44;;;-9.75;69.42
69247;BME280;56358;56.328;43.992;2022-12-07T05:52:17;102554.81;;;-9.82;69.65
69247;BME280;56358;56.328;43.992;2022-12-07T05:54:18;102564.59;;;-9.74;69.65
69247;BME280;56358;56.328;43.992;2022-12-07T05:56:18;102564.59;;;-9.74;69.44
69247;BME280;56358;56.328;43.992;2022-12-07T05:58:19;102569.59;;;-9.79;69.75
69247;BME280;56358;56.328;43.992;2022-12-07T06:00:38;102476.06;;;-10.26;69.52
69247;BME280;56358;56.328;43.992;2022-12-07T06:02:39;102549.78;;;-9.77;69.45
69247;BME280;56358;56.328;43.992;2022-12-07T06:04:42;102571.75;;;-9.69;69.38
69247;BME280;56358;56.328;43.992;2022-12-07T06:06:43;102554.47;;;-9.68;69.27
69247;BME280;56358;56.328;43.992;2022-12-07T06:08:43;102565.72;;;-9.68;69.23
69247;BME280;56358;56.328;43.992;2022-12-07T06:10:44;102548.06;;;-9.77;69.20
69247;BME280;56358;56.328;43.992;2022-12-07T06:12:44;102564.84;;;-9.68;69.12
69247;BME280;56358;56.328;43.992;2022-12-07T06:14:46;102489.84;;;-10.06;69.13
69247;BME280;56358;56.328;43.992;2022-12-07T06:16:47;102564.06;;;-9.66;69.27
69247;BME280;56358;56.328;43.992;2022-12-07T06:18:49;102549.91;;;-9.74;68.59
69247;BME280;56358;56.328;43.992;2022-12-07T06:20:50;102562.44;;;-9.64;68.75
69247;BME280;56358;56.328;43.992;2022-12-07T06:22:50;102570.22;;;-9.64;68.76
69247;BME280;56358;56.328;43.992;2022-12-07T06:24:51;102558.75;;;-9.69;68.67
69247;BME280;56358;56.328;43.992;2022-12-07T06:26:52;102585.91;;;-9.61;68.29
69247;BME280;56358;56.328;43.992;2022-12-07T06:28:52;102508.25;;;-10.00;68.11
69247;BME280;56358;56.328;43.992;2022-12-07T06:30:57;102583.31;;;-9.61;68.19
69247;BME280;56358;56.328;43.992;2022-12-07T06:32:58;102574.44;;;-9.66;68.16
69247;BME280;56358;56.328;43.992;2022-12-07T06:34:59;102574.56;;;-9.85;68.37
69247;BME280;56358;56.328;43.992;2022-12-07T06:37:00;102561.75;;;-9.81;68.15
69247;BME280;56358;56.328;43.992;2022-12-07T06:39:02;102572.41;;;-9.74;68.59
69247;BME280;56358;56.328;43.992;2022-12-07T06:41:03;102557.97;;;-9.89;68.73
69247;BME280;56358;56.328;43.992;2022-12-07T06:43:04;102469.69;;;-10.36;68.69
69247;BME280;56358;56.328;43.992;2022-12-07T06:45:05;102565.25;;;-9.80;69.21
69247;BME280;56358;56.328;43.992;2022-12-07T06:47:06;102588.84;;;-9.74;69.39
69247;BME280;56358;56.328;43.992;2022-12-07T06:49:08;102552.38;;;-9.77;69.12
69247;BME280;56358;56.328;43.992;2022-12-07T06:51:09;102567.38;;;-9.70;68.72
69247;BME280;56358;56.328;43.992;2022-12-07T06:53:10;102544.91;;;-9.69;68.21
69247;BME280;56358;56.328;43.992;2022-12-07T06:55:10;102571.09;;;-9.63;68.03
69247;BME280;56358;56.328;43.992;2022-12-07T06:57:11;102572.16;;;-9.58;67.84
69247;BME280;56358;56.328;43.992;2022-12-07T06:59:12;102582.22;;;-9.66;68.06
69247;BME280;56358;56.328;43.992;2022-12-07T07:01:14;102552.38;;;-9.77;67.98
69247;BME280;56358;56.328;43.992;2022-12-07T07:03:16;102573.88;;;-9.58;67.90
69247;BME280;56358;56.328;43.992;2022-12-07T07:05:16;102580.50;;;-9.67;67.59
69247;BME280;56358;56.328;43.992;2022-12-07T07:07:17;102586.88;;;-9.58;68.10
69247;BME280;56358;56.328;43.992;2022-12-07T07:09:18;102501.88;;;-10.08;68.17
69247;BME280;56358;56.328;43.992;2022-12-07T07:11:19;102563.78;;;-9.73;67.69
69247;BME280;56358;56.328;43.992;2022-12-07T07:13:19;102600.59;;;-9.61;67.69
69247;BME280;56358;56.328;43.992;2022-12-07T07:15:20;102593.63;;;-9.62;67.21
69247;BME280;56358;56.328;43.992;2022-12-07T07:17:21;102587.56;;;-9.63;67.71
69247;BME280;56358;56.328;43.992;2022-12-07T07:19:21;102611.06;;;-9.60;67.48
69247;BME280;56358;56.328;43.992;2022-12-07T07:21:22;102609.41;;;-9.57;67.76
69247;BME280;56358;56.328;43.992;2022-12-07T07:23:23;102582.22;;;-9.66;67.20
69247;BME280;56358;56.328;43.992;2022-12-07T07:25:24;102504.63;;;-10.03;66.74
69247;BME280;56358;56.328;43.992;2022-12-07T07:27:24;102576.59;;;-9.55;66.70
69247;BME280;56358;56.328;43.992;2022-12-07T07:29:25;102601.31;;;-9.43;66.11
69247;BME280;56358;56.328;43.992;2022-12-07T07:31:26;102590.88;;;-9.44;65.22
69247;BME280;56358;56.328;43.992;2022-12-07T07:33:26;102560.13;;;-9.56;64.84
69247;BME280;56358;56.328;43.992;2022-12-07T07:35:28;102509.69;;;-9.85;64.70
69247;BME280;56358;56.328;43.992;2022-12-07T07:37:29;102588.81;;;-9.53;65.59
69247;BME280;56358;56.328;43.992;2022-12-07T07:39:30;102517.34;;;-9.88;64.73
69247;BME280;56358;56.328;43.992;2022-12-07T07:41:31;102589.97;;;-9.45;64.02
69247;BME280;56358;56.328;43.992;2022-12-07T07:43:32;102599.59;;;-9.42;63.52
69247;BME280;56358;56.328;43.992;2022-12-07T07:45:33;102587.94;;;-9.53;64.33
69247;BME280;56358;56.328;43.992;2022-12-07T07:47:34;102572.16;;;-9.58;64.13
69247;BME280;56358;56.328;43.992;2022-12-07T07:49:34;102528.78;;;-9.83;63.64
69247;BME280;56358;56.328;43.992;2022-12-07T07:51:35;102575.56;;;-9.59;64.65
69247;BME280;56358;56.328;43.992;2022-12-07T07:53:35;102566.75;;;-9.64;64.76
69247;BME280;56358;56.328;43.992;2022-12-07T07:55:36;102491.50;;;-10.08;65.09
69247;BME280;56358;56.328;43.992;2022-12-07T07:57:38;102584.56;;;-9.51;64.68
69247;BME280;56358;56.328;43.992;2022-12-07T07:59:39;102594.97;;;-9.51;65.03
69247;BME280;56358;56.328;43.992;2022-12-07T08:01:39;102546.78;;;-9.88;65.00
69247;BME280;56358;56.328;43.992;2022-12-07T08:03:40;102571.28;;;-9.58;64.51
69247;BME280;56358;56.328;43.992;2022-12-07T08:05:41;102483.50;;;-10.13;64.36
69247;BME280;56358;56.328;43.992;2022-12-07T08:07:41;102601.19;;;-9.46;64.64
69247;BME280;56358;56.328;43.992;2022-12-07T08:09:42;102568.38;;;-9.66;63.43
69247;BME280;56358;56.328;43.992;2022-12-07T08:11:43;102604.69;;;-9.45;63.67
69247;BME280;56358;56.328;43.992;2022-12-07T08:13:45;102600.31;;;-9.46;63.72
69247;BME280;56358;56.328;43.992;2022-12-07T08:15:49;102566.34;;;-9.75;62.99
69247;BME280;56358;56.328;43.992;2022-12-07T08:17:50;102578.53;;;-9.50;63.93
69247;BME280;56358;56.328;43.992;2022-12-07T08:19:50;102576.63;;;-9.54;63.69
69247;BME280;56358;56.328;43.992;2022-12-07T08:21:51;102588.03;;;-9.50;63.54
69247;BME280;56358;56.328;43.992;2022-12-07T08:23:52;102526.94;;;-9.86;63.43
69247;BME280;56358;56.328;43.992;2022-12-07T08:25:52;102594.88;;;-9.52;63.58
69247;BME280;56358;56.328;43.992;2022-12-07T08:27:54;102566.44;;;-9.72;64.45
69247;BME280;56358;56.328;43.992;2022-12-07T08:29:54;102506.41;;;-10.02;63.78
69247;BME280;56358;56.328;43.992;2022-12-07T08:31:55;102584.38;;;-9.55;63.41
69247;BME280;56358;56.328;43.992;2022-12-07T08:33:56;102593.94;;;-9.54;63.47
69247;BME280;56358;56.328;43.992;2022-12-07T08:36:08;102572.91;;;-9.61;63.67
69247;BME280;56358;56.328;43.992;2022-12-07T08:38:09;102594.31;;;-9.45;63.83
69247;BME280;56358;56.328;43.992;2022-12-07T08:40:11;102512.97;;;-9.89;63.34
69247;BME280;56358;56.328;43.992;2022-12-07T08:42:15;102493.38;;;-10.04;63.75
69247;BME280;56358;56.328;43.992;2022-12-07T08:44:16;102590.03;;;-9.43;63.82
69247;BME280;56358;56.328;43.992;2022-12-07T08:48:29;102589.97;;;-9.45;62.95
69247;BME280;56358;56.328;43.992;2022-12-07T08:50:31;102581.47;;;-9.40;63.35
69247;BME280;56358;56.328;43.992;2022-12-07T08:52:34;102586.66;;;-9.40;63.17
69247;BME280;56358;56.328;43.992;2022-12-07T08:54:38;102491.16;;;-9.95;63.61
69247;BME280;56358;56.328;43.992;2022-12-07T08:56:40;102567.25;;;-9.50;62.83
69247;BME280;56358;56.328;43.992;2022-12-07T08:58:41;102576.28;;;-9.40;62.89
69247;BME280;56358;56.328;43.992;2022-12-07T09:00:42;102572.00;;;-9.40;62.90
69247;BME280;56358;56.328;43.992;2022-12-07T09:02:43;102564.06;;;-9.43;63.04
69247;BME280;56358;56.328;43.992;2022-12-07T09:04:45;102585.91;;;-9.38;62.43
69247;BME280;56358;56.328;43.992;2022-12-07T09:06:45;102579.94;;;-9.35;62.30
69247;BME280;56358;56.328;43.992;2022-12-07T09:08:49;102574.94;;;-9.31;62.32
69247;BME280;56358;56.328;43.992;2022-12-07T09:10:51;102594.16;;;-9.26;62.33
69247;BME280;56358;56.328;43.992;2022-12-07T09:12:52;102568.78;;;-9.33;62.07
69247;BME280;56358;56.328;43.992;2022-12-07T09:14:52;102569.66;;;-9.32;62.08
69247;BME280;56358;56.328;43.992;2022-12-07T09:16:53;102567.00;;;-9.34;63.21
69247;BME280;56358;56.328;43.992;2022-12-07T09:18:54;102587.47;;;-9.19;62.38
69247;BME280;56358;56.328;43.992;2022-12-07T09:20:55;102581.47;;;-9.18;62.37
69247;BME280;56358;56.328;43.992;2022-12-07T09:22:56;102601.47;;;-9.15;62.45
69247;BME280;56358;56.328;43.992;2022-12-07T09:24:58;102583.22;;;-9.17;62.64
69247;BME280;56358;56.328;43.992;2022-12-07T09:26:58;102586.94;;;-9.10;62.91
69247;BME280;56358;56.328;43.992;2022-12-07T09:28:59;102593.97;;;-9.07;62.59
69247;BME280;56358;56.328;43.992;2022-12-07T09:31:00;102587.28;;;-9.01;62.55
69247;BME280;56358;56.328;43.992;2022-12-07T09:33:00;102586.50;;;-8.98;62.67
69247;BME280;56358;56.328;43.992;2022-12-07T09:35:01;102595.41;;;-8.91;63.16
69247;BME280;56358;56.328;43.992;2022-12-07T09:37:02;102536.50;;;-9.15;62.41
69247;BME280;56358;56.328;43.992;2022-12-07T09:39:04;102595.53;;;-8.88;62.78
69247;BME280;56358;56.328;43.992;2022-12-07T09:41:07;102582.56;;;-8.87;62.75
69247;BME280;56358;56.328;43.992;2022-12-07T09:43:13;102554.50;;;-8.97;62.05
69247;BME280;56358;56.328;43.992;2022-12-07T09:45:19;102593.22;;;-8.81;62.63
69247;BME280;56358;56.328;43.992;2022-12-07T09:47:21;102590.88;;;-8.73;63.18
69247;BME280;56358;56.328;43.992;2022-12-07T09:49:24;102588.28;;;-8.73;63.35
69247;BME280;56358;56.328;43.992;2022-12-07T09:51:27;102587.03;;;-8.59;62.80
69247;BME280;56358;56.328;43.992;2022-12-07T09:53:30;102591.22;;;-8.64;61.52
69247;BME280;56358;56.328;43.992;2022-12-07T09:55:33;102560.72;;;-8.68;61.92
69247;BME280;56358;56.328;43.992;2022-12-07T09:57:36;102582.22;;;-8.48;61.79
69247;BME280;56358;56.328;43.992;2022-12-07T09:59:37;102448.16;;;-9.15;62.10
69247;BME280;56358;56.328;43.992;2022-12-07T10:01:38;102550.84;;;-8.52;61.45
69247;BME280;56358;56.328;43.992;2022-12-07T10:03:48;102523.78;;;-8.57;61.76
69247;BME280;56358;56.328;43.992;2022-12-07T10:05:51;102579.16;;;-8.09;61.25
69247;BME280;56358;56.328;43.992;2022-12-07T10:07:52;102575.59;;;-8.11;61.28
69247;BME280;56358;56.328;43.992;2022-12-07T10:09:53;102586.31;;;-8.01;60.93
69247;BME280;56358;56.328;43.992;2022-12-07T10:12:08;102576.84;;;-7.99;61.54
69247;BME280;56358;56.328;43.992;2022-12-07T10:14:12;102474.53;;;-8.53;61.07
69247;BME280;56358;56.328;43.992;2022-12-07T10:18:34;102500.88;;;-8.42;60.43
69247;BME280;56358;56.328;43.992;2022-12-07T10:20:39;102570.13;;;-7.93;61.22
69247;BME280;56358;56.328;43.992;2022-12-07T10:25:07;102579.34;;;-7.75;61.33
69247;BME280;56358;56.328;43.992;2022-12-07T10:27:31;102583.41;;;-7.56;60.82
69247;BME280;56358;56.328;43.992;2022-12-07T10:29:36;102573.84;;;-7.55;60.78
69247;BME280;56358;56.328;43.992;2022-12-07T10:31:39;102579.22;;;-7.51;60.55
69247;BME280;56358;56.328;43.992;2022-12-07T10:33:58;102582.53;;;-7.56;60.18
69247;BME280;56358;56.328;43.992;2022-12-07T10:36:15;102558.34;;;-7.52;60.60
69247;BME280;56358;56.328;43.992;2022-12-07T10:38:17;102489.28;;;-7.96;60.19
69247;BME280;56358;56.328;43.992;2022-12-07T10:44:30;102566.53;;;-7.40;60.82
69247;BME280;56358;56.328;43.992;2022-12-07T10:46:46;102569.91;;;-7.43;59.72
69247;BME280;56358;56.328;43.992;2022-12-07T10:53:52;102587.41;;;-7.38;59.81
69247;BME280;56358;56.328;43.992;2022-12-07T11:10:50;102561.19;;;-7.45;61.52
69247;BME280;56358;56.328;43.992;2022-12-07T11:17:20;102560.00;;;-7.54;60.72
69247;BME280;56358;56.328;43.992;2022-12-07T11:22:11;102496.41;;;-7.92;60.63
69247;BME280;56358;56.328;43.992;2022-12-07T11:24:19;102551.16;;;-7.60;61.15
69247;BME280;56358;56.328;43.992;2022-12-07T11:26:34;102565.84;;;-7.63;60.84
69247;BME280;56358;56.328;43.992;2022-12-07T11:36:07;102480.34;;;-8.33;61.17
69247;BME280;56358;56.328;43.992;2022-12-07T11:38:22;102561.28;;;-7.98;61.94
69247;BME280;56358;56.328;43.992;2022-12-07T11:40:30;102548.72;;;-8.11;62.49